W4SNA-3 Weather Reports


Display with metric or nautical units.
time (UTC)temp
F
wind
direction
speed
MPH
gust
MPH
rain 1hr
in
rain 24hr
in
rain mn
in
humidity
%
barometer
mb
20181209192047 27 54 17.0 35.0 0.00 0.00 0.00 97 1011.8
20181209191547 27 56 14.0 35.0 0.00 0.00 0.00 97 1012.0
20181209191047 27 45 17.0 35.0 0.00 0.00 0.00 97 1012.2
20181209190547 27 32 19.0 35.0 0.00 0.00 0.00 97 1012.2
20181209190047 27 36 17.0 31.0 0.00 0.00 0.00 97 1012.1
20181209185549 27 38 14.0 31.0 0.00 0.00 0.00 97 1012.5
20181209185047 27 40 16.0 31.0 0.00 0.00 0.00 97 1012.4
20181209184547 27 36 16.0 28.0 0.00 0.00 0.00 97 1012.5
20181209184047 27 44 13.0 28.0 0.00 0.00 0.00 97 1012.6
20181209183548 27 42 16.0 28.0 0.00 0.00 0.00 97 1012.5
20181209183047 27 45 15.0 34.0 0.00 0.00 0.00 97 1012.6
20181209182549 27 46 17.0 34.0 0.00 0.00 0.00 97 1012.7
20181209182047 27 43 17.0 26.0 0.00 0.00 0.00 97 1013.0
20181209181551 27 54 14.0 29.0 0.00 0.00 0.00 97 1013.0
20181209181047 27 52 10.0 29.0 0.00 0.00 0.00 97 1013.0
20181209180547 27 49 14.0 30.0 0.00 0.00 0.00 97 1013.3
20181209180047 27 48 11.0 35.0 0.00 0.00 0.00 97 1013.2
20181209175547 27 48 18.0 35.0 0.00 0.00 0.00 97 1013.4
20181209174806 26 46 17.0 29.0 0.00 0.00 0.00 97 1013.3
20181209174306 26 54 15.0 36.0 0.00 0.00 0.00 97 1013.4
20181209173808 26 46 17.0 37.0 0.00 0.00 0.00 97 1013.1
20181209173306 26 45 21.0 37.0 0.00 0.00 0.00 96 1012.9
20181209172807 25 48 23.0 37.0 0.00 0.00 0.00 96 1013.0
20181209172308 25 41 15.0 33.0 0.00 0.00 0.00 96 1013.1
20181209171807 25 55 13.0 28.0 0.00 0.00 0.00 96 1013.6
20181209171306 25 79 11.0 27.0 0.00 0.00 0.00 96 1013.5
20181209170807 25 74 9.0 30.0 0.00 0.00 0.00 96 1013.5
20181209170307 24 57 10.0 30.0 0.00 0.00 0.00 96 1013.5
20181209165650 24 81 15.0 23.0 0.00 0.00 0.00 96 1013.4
20181209165031 24 64 14.0 26.0 0.00 0.00 0.00 96 1013.5
20181209164427 24 76 12.0 21.0 0.00 0.00 0.00 96 1013.7
20181209163928 24 70 1.0 16.0 0.00 0.00 0.00 96 1014.1
20181209163427 24 68 2.0 26.0 0.00 0.00 0.00 96 1014.2
20181209162930 24 64 6.0 27.0 0.00 0.00 0.00 96 1014.4
20181209162427 24 50 9.0 27.0 0.00 0.00 0.00 96 1014.5
20181209161927 24 61 9.0 20.0 0.00 0.00 0.00 96 1014.9
20181209161427 23 0 0.0 17.0 0.00 0.00 0.00 96 1015.0
20181209160927 23 0 0.0 30.0 0.00 0.00 0.00 96 1014.9
20181209160427 23 67 15.0 31.0 0.00 0.00 0.00 96 1015.0
20181209155927 23 67 17.0 31.0 0.00 0.00 0.00 96 1015.1
20181209154928 23 60 10.0 22.0 0.00 0.00 0.00 96 1016.4
20181209154428 23 54 4.0 22.0 0.00 0.00 0.00 96 1016.6
20181209153640 23 0 0.0 25.0 0.00 0.00 0.00 96 1016.4
20181209153150 23 0 0.0 17.0 0.00 0.00 0.00 96 1016.9
20181209152640 23 0 0.0 25.0 0.00 0.00 0.00 96 1017.2
20181209152141 22 46 15.0 25.0 0.00 0.00 0.00 96 1017.4
20181209151641 22 36 5.0 17.0 0.00 0.00 0.00 96 1017.0
20181209151140 22 0 0.0 13.0 0.00 0.00 0.00 96 1017.0
20181209150641 22 0 0.0 5.0 0.00 0.00 0.00 95 1017.2
20181209150141 22 0 0.0 5.0 0.00 0.00 0.00 95 1017.5
20181209145641 22 0 0.0 9.0 0.00 0.00 0.00 95 1017.7
20181209145148 22 0 0.0 9.0 0.00 0.00 0.00 96 1017.7
20181209144640 21 0 0.0 2.0 0.00 0.00 0.00 95 1017.6
20181209144140 21 0 0.0 1.0 0.00 0.00 0.00 95 1017.4
20181209143644 21 0 0.0 0.0 0.00 0.00 0.00 95 1017.8
20181209143148 21 0 0.0 0.0 0.00 0.00 0.00 95 1017.6
20181209142059 21 0 0.0 1.0 0.00 0.00 0.00 95 1017.8
20181209141557 21 0 0.0 2.0 0.00 0.00 0.00 95 1018.1
20181209141059 21 0 0.0 2.0 0.00 0.00 0.00 95 1018.0
20181209140559 21 0 0.0 2.0 0.00 0.00 0.00 95 1018.4
20181209140057 21 0 0.0 0.0 0.00 0.00 0.00 95 1018.1
20181209135556 21 0 0.0 0.0 0.00 0.00 0.00 95 1018.2
20181209135057 21 0 0.0 0.0 0.00 0.00 0.00 95 1018.1
20181209134555 21 0 0.0 0.0 0.00 0.00 0.00 95 1018.0
20181209134056 21 0 0.0 0.0 0.00 0.00 0.00 95 1017.8
20181209133555 21 0 0.0 0.0 0.00 0.00 0.00 95 1018.1
20181209133056 21 0 0.0 0.0 0.00 0.00 0.00 95 1018.2
20181209132556 21 0 0.0 0.0 0.00 0.00 0.00 95 1018.2
20181209131556 21 0 0.0 0.0 0.00 0.00 0.00 95 1018.2
20181209130558 21 0 0.0 1.0 0.00 0.00 0.00 95 1017.8
20181209130056 21 0 0.0 0.0 0.00 0.00 0.00 95 1017.8
20181209125557 21 0 0.0 0.0 0.00 0.00 0.00 95 1018.4
20181209125056 21 0 0.0 0.0 0.00 0.00 0.00 95 1018.3
20181209124556 21 0 0.0 0.0 0.00 0.00 0.00 95 1018.6
20181209124055 21 0 0.0 0.0 0.00 0.00 0.00 95 1018.6
20181209123555 21 0 0.0 0.0 0.00 0.00 0.00 95 1018.5
20181209123057 21 0 0.0 0.0 0.00 0.00 0.00 95 1018.4
20181209122555 21 0 0.0 0.0 0.00 0.00 0.00 95 1018.0
20181209122055 21 0 0.0 0.0 0.00 0.00 0.00 95 1018.0
20181209121555 22 0 0.0 0.0 0.00 0.00 0.00 95 1018.3
20181209121055 22 0 0.0 0.0 0.00 0.00 0.00 95 1018.6
20181209120556 22 0 0.0 0.0 0.00 0.00 0.00 95 1018.9
20181209120055 22 0 0.0 0.0 0.00 0.00 0.00 95 1018.9
20181209115555 22 0 0.0 0.0 0.00 0.00 0.00 95 1018.9
20181209115055 22 0 0.0 0.0 0.00 0.00 0.00 95 1018.9
20181209114556 22 0 0.0 0.0 0.00 0.00 0.00 95 1018.9
20181209114055 22 0 0.0 0.0 0.00 0.00 0.00 95 1018.9
20181209113555 22 0 0.0 0.0 0.00 0.00 0.00 95 1018.9
20181209113055 22 0 0.0 0.0 0.00 0.00 0.00 95 1018.7
20181209112555 22 0 0.0 0.0 0.00 0.00 0.00 95 1018.6
20181209112055 22 0 0.0 0.0 0.00 0.00 0.00 95 1018.5
20181209111555 22 0 0.0 0.0 0.00 0.00 0.00 95 1018.6
20181209111137 22 0 0.0 0.0 0.00 0.00 0.00 95 1018.6
20181209111055 22 0 0.0 0.0 0.00 0.00 0.00 95 1018.6
20181209110555 22 0 0.0 0.0 0.00 0.00 0.00 95 1018.6
20181209110055 22 0 0.0 4.0 0.00 0.00 0.00 95 1018.4
20181209105555 22 0 0.0 4.0 0.00 0.00 0.00 95 1018.5
20181209105055 22 0 0.0 0.0 0.00 0.00 0.00 96 1018.4
20181209104033 22 0 0.0 0.0 0.00 0.00 0.00 96 1018.9
20181209103532 22 0 0.0 0.0 0.00 0.00 0.00 96 1018.8
20181209103032 22 0 0.0 0.0 0.00 0.00 0.00 96 1018.5
20181209102532 22 0 0.0 0.0 0.00 0.00 0.00 95 1018.5
20181209101636 22 0 0.0 0.0 0.00 0.00 0.00 95 1018.5
20181209101136 22 0 0.0 0.0 0.00 0.00 0.00 95 1018.6
20181209100639 22 0 0.0 0.0 0.00 0.00 0.00 95 1019.0
20181209100136 23 0 0.0 0.0 0.00 0.00 0.00 95 1019.1
20181209095636 23 0 0.0 0.0 0.00 0.00 0.00 95 1019.2
20181209095139 23 0 0.0 0.0 0.00 0.00 0.00 95 1019.5
20181209094636 23 0 0.0 8.0 0.00 0.00 0.00 95 1019.8
20181209094136 23 0 0.0 8.0 0.00 0.00 0.00 95 1019.8
20181209093636 23 0 0.0 0.0 0.00 0.00 0.00 95 1019.9
20181209093136 23 0 0.0 0.0 0.00 0.00 0.00 95 1019.9
20181209092311 23 0 0.0 0.0 0.00 0.00 0.00 95 1019.9
20181209091811 23 0 0.0 0.0 0.00 0.00 0.00 95 1020.1
20181209091314 23 0 0.0 0.0 0.00 0.00 0.00 95 1020.1
20181209090747 23 0 0.0 0.0 0.00 0.00 0.00 95 1020.4
20181209090251 23 0 0.0 0.0 0.00 0.00 0.00 95 1020.6
20181209085747 23 0 0.0 0.0 0.00 0.00 0.00 95 1020.7
20181209085247 23 0 0.0 0.0 0.00 0.00 0.00 95 1020.8
20181209084747 24 0 0.0 0.0 0.00 0.00 0.00 95 1020.8
20181209084247 24 0 0.0 0.0 0.00 0.00 0.00 95 1021.0
20181209083747 24 0 0.0 0.0 0.00 0.00 0.00 95 1021.0
20181209083247 24 0 0.0 0.0 0.00 0.00 0.00 95 1021.0
20181209082747 24 0 0.0 0.0 0.00 0.00 0.00 95 1021.2
20181209082247 24 0 0.0 0.0 0.00 0.00 0.00 95 1021.6
20181209081747 24 0 0.0 0.0 0.00 0.00 0.00 95 1021.6
20181209081247 24 0 0.0 0.0 0.00 0.00 0.00 95 1021.8
20181209080747 24 0 0.0 0.0 0.00 0.00 0.00 95 1021.7
20181209080247 24 0 0.0 0.0 0.00 0.00 0.00 95 1021.7
20181209075747 24 0 0.0 0.0 0.00 0.00 0.00 95 1021.7
20181209075247 24 0 0.0 0.0 0.00 0.00 0.00 94 1022.0
20181209074748 24 0 0.0 0.0 0.00 0.00 0.00 94 1022.0
20181209074247 24 0 0.0 0.0 0.00 0.00 0.00 94 1022.2
20181209073747 25 0 0.0 0.0 0.00 0.00 0.00 94 1022.3
20181209073247 25 0 0.0 0.0 0.00 0.00 0.00 94 1022.4
20181209072747 25 0 0.0 0.0 0.00 0.00 0.00 94 1022.5
20181209072247 25 0 0.0 0.0 0.00 0.00 0.00 94 1022.4
20181209071747 25 0 0.0 0.0 0.00 0.00 0.00 94 1022.4
20181209071247 25 0 0.0 13.0 0.00 0.00 0.00 94 1022.5
20181209070747 25 0 0.0 13.0 0.00 0.00 0.00 94 1022.6
20181209070247 25 129 5.0 13.0 0.00 0.00 0.00 94 1022.6
20181209065747 25 128 5.0 13.0 0.00 0.00 0.00 94 1022.7
20181209065247 25 138 7.0 15.0 0.00 0.00 0.00 93 1022.8
20181209064747 25 135 5.0 15.0 0.00 0.00 0.00 93 1022.9
20181209064247 25 135 6.0 17.0 0.00 0.00 0.00 100 1022.8
20181209063746 25 138 7.0 17.0 0.00 0.00 0.00 93 1022.8
20181209063303 25 127 8.0 17.0 0.00 0.00 0.00 93 1022.7
20181209062747 25 135 7.0 12.0 0.00 0.00 0.00 93 1022.9
20181209062247 25 129 6.0 12.0 0.00 0.00 0.00 93 1022.8
20181209061747 25 138 6.0 16.0 0.00 0.00 0.00 92 1023.0
20181209061246 26 135 6.0 16.0 0.00 0.00 0.00 92 1023.1
20181209060747 26 133 3.0 13.0 0.00 0.00 0.00 92 1023.1
20181209060247 26 138 6.0 12.0 0.00 0.00 0.00 92 1023.2
20181209055747 26 135 4.0 10.0 0.00 0.00 0.00 91 1023.4
20181209055247 26 0 0.0 4.0 0.00 0.00 0.00 91 1023.4
20181209054747 26 0 0.0 4.0 0.00 0.00 0.00 91 1023.7
20181209053840 26 0 0.0 9.0 0.00 0.00 0.00 90 1023.6
20181209053340 26 0 0.0 9.0 0.00 0.00 0.00 90 1023.5
20181209052840 26 0 0.0 6.0 0.00 0.00 0.00 89 1023.5
20181209051842 26 0 0.0 5.0 0.00 0.00 0.00 88 1023.6
20181209051340 26 0 0.0 7.0 0.00 0.00 0.00 87 1023.5
20181209050840 27 0 0.0 8.0 0.00 0.00 0.00 86 1023.6
20181209045340 27 120 6.0 20.0 0.00 0.00 0.00 84 1023.7
20181209044840 27 119 7.0 20.0 0.00 0.00 0.00 82 1023.8
20181209044340 27 113 12.0 19.0 0.00 0.00 0.00 82 1023.8
20181209043340 28 134 8.0 21.0 0.00 0.00 0.00 81 1024.2
20181209042453 28 155 2.0 11.0 0.00 0.00 0.00 80 1024.7
20181209041953 28 131 6.0 11.0 0.00 0.00 0.00 80 1024.5
20181209041453 28 133 5.0 12.0 0.00 0.00 0.00 81 1024.5
20181209040953 28 128 6.0 12.0 0.00 0.00 0.00 81 1024.8
20181209040453 28 141 2.0 7.0 0.00 0.00 0.00 82 1024.9
20181209035955 28 142 2.0 7.0 0.00 0.00 0.00 82 1024.8
20181209035453 28 147 5.0 7.0 0.00 0.00 0.00 82 1024.8
20181209034953 28 148 4.0 7.0 0.00 0.00 0.00 82 1024.8
20181209034453 28 151 4.0 7.0 0.00 0.00 0.00 83 1024.8
20181209033953 28 153 2.0 6.0 0.00 0.00 0.00 83 1025.0
20181209033157 28 157 2.0 7.0 0.00 0.00 0.00 83 1025.1
20181209032657 28 149 3.0 7.0 0.00 0.00 0.00 83 1025.1
20181209032140 28 148 4.0 8.0 0.00 0.00 0.00 84 1025.1
20181209031641 28 147 3.0 7.0 0.00 0.00 0.00 84 1025.0
20181209031140 28 146 2.0 7.0 0.00 0.00 0.00 84 1025.1
20181209030640 28 147 2.0 6.0 0.00 0.00 0.00 84 1025.0
20181209030141 28 146 2.0 6.0 0.00 0.00 0.00 84 1025.0
20181209025640 28 147 1.0 7.0 0.00 0.00 0.00 84 1024.9
20181209025141 28 147 2.0 11.0 0.00 0.00 0.00 84 1024.9
20181209024640 28 119 7.0 11.0 0.00 0.00 0.00 84 1024.8
20181209023712 28 132 5.0 12.0 0.00 0.00 0.00 84 1024.5
20181209023212 28 129 5.0 8.0 0.00 0.00 0.00 84 1024.6
20181209022712 28 128 2.0 8.0 0.00 0.00 0.00 84 1024.9
20181209022212 29 143 4.0 7.0 0.00 0.00 0.00 84 1025.1
20181209021712 29 153 3.0 5.0 0.00 0.00 0.00 84 1025.2
20181209021212 29 153 1.0 4.0 0.00 0.00 0.00 84 1025.2
20181209020712 29 153 1.0 4.0 0.00 0.00 0.00 84 1025.3
20181209020212 29 153 1.0 4.0 0.00 0.00 0.00 84 1025.2
20181209015712 29 153 1.0 3.0 0.00 0.00 0.00 84 1025.2
20181209015212 29 0 0.0 5.0 0.00 0.00 0.00 84 1025.1
20181209014712 29 153 2.0 5.0 0.00 0.00 0.00 84 1025.2
20181209014212 29 153 1.0 4.0 0.00 0.00 0.00 84 1025.0
20181209013712 29 153 1.0 4.0 0.00 0.00 0.00 84 1024.9
20181209013212 29 153 1.0 4.0 0.00 0.00 0.00 84 1024.9
20181209012713 29 153 1.0 4.0 0.00 0.00 0.00 84 1024.9
20181209012211 29 153 1.0 6.0 0.00 0.00 0.00 84 1025.4
20181209011712 29 152 2.0 6.0 0.00 0.00 0.00 84 1025.1
20181209011156 29 152 2.0 5.0 0.00 0.00 0.00 84 1024.9
20181209010655 29 0 0.0 8.0 0.00 0.00 0.00 84 1024.9
20181209010155 29 153 4.0 8.0 0.00 0.00 0.00 84 1024.9
20181209005655 29 152 2.0 4.0 0.00 0.00 0.00 84 1024.9
20181209005155 29 152 1.0 4.0 0.00 0.00 0.00 84 1024.9
20181209004655 29 152 2.0 4.0 0.00 0.00 0.00 84 1025.0
20181209004155 29 0 0.0 3.0 0.00 0.00 0.00 83 1025.3
20181209003157 29 0 0.0 5.0 0.00 0.00 0.00 83 1025.4
20181209002657 29 152 3.0 6.0 0.00 0.00 0.00 83 1025.2
20181209002158 29 0 0.0 6.0 0.00 0.00 0.00 84 1025.3
20181209001657 29 152 4.0 5.0 0.00 0.00 0.00 83 1025.2
20181209001157 29 0 0.0 4.0 0.00 0.00 0.00 83 1025.4
20181209000656 30 152 2.0 4.0 0.00 0.00 0.00 83 1025.3
20181209000157 30 152 1.0 7.0 0.00 0.00 0.00 84 1025.3
20181208235657 30 152 2.0 7.0 0.00 0.00 0.00 83 1025.2
20181208233951 30 147 1.0 5.0 0.00 0.00 0.00 83 1025.2
20181208233451 30 147 1.0 7.0 0.00 0.00 0.00 83 1025.1
20181208232952 30 146 4.0 7.0 0.00 0.00 0.00 83 1024.9
20181208232451 30 150 2.0 6.0 0.00 0.00 0.00 84 1024.9
20181208231953 30 143 3.0 6.0 0.00 0.00 0.00 83 1024.9
20181208231451 30 134 2.0 5.0 0.00 0.00 0.00 84 1024.8
20181208230953 30 133 2.0 5.0 0.00 0.00 0.00 83 1024.7
20181208230451 30 133 2.0 4.0 0.00 0.00 0.00 83 1024.7
20181208225953 31 0 0.0 3.0 0.00 0.00 0.00 83 1024.5
20181208225451 31 133 2.0 4.0 0.00 0.00 0.00 83 1024.4
20181208224951 31 133 1.0 4.0 0.00 0.00 0.00 83 1024.3
20181208224451 31 131 2.0 4.0 0.00 0.00 0.00 83 1024.3
20181208223953 31 131 1.0 3.0 0.00 0.00 0.00 83 1024.3
20181208223329 31 0 0.0 3.0 0.00 0.00 0.00 82 1024.2
20181208222834 31 0 0.0 4.0 0.00 0.00 0.00 82 1024.2
20181208222329 31 131 2.0 4.0 0.00 0.00 0.00 82 1024.1
20181208221829 32 131 1.0 4.0 0.00 0.00 0.00 81 1024.1
20181208221329 32 131 1.0 3.0 0.00 0.00 0.00 81 1024.3
20181208220828 32 131 2.0 4.0 0.00 0.00 0.00 81 1024.3
20181208220328 32 131 2.0 4.0 0.00 0.00 0.00 81 1024.5
20181208215830 32 0 0.0 3.0 0.00 0.00 0.00 81 1024.7
20181208215329 32 131 1.0 3.0 0.00 0.00 0.00 81 1024.9
20181208214612 32 131 3.0 5.0 0.00 0.00 0.00 81 1025.0
20181208214112 33 0 0.0 2.0 0.00 0.00 0.00 80 1025.1
20181208213612 33 0 0.0 2.0 0.00 0.00 0.00 80 1025.1
20181208213112 33 0 0.0 2.0 0.00 0.00 0.00 79 1025.1
20181208212612 33 0 0.0 2.0 0.00 0.00 0.00 79 1025.4
20181208212112 33 131 1.0 2.0 0.00 0.00 0.00 78 1025.5
20181208210742 34 131 1.0 3.0 0.00 0.00 0.00 79 1025.5
20181208210240 34 0 0.0 3.0 0.00 0.00 0.00 78 1025.4
20181208205741 34 0 0.0 2.0 0.00 0.00 0.00 79 1025.3
20181208205241 34 0 0.0 3.0 0.00 0.00 0.00 78 1025.2
20181208204740 34 0 0.0 3.0 0.00 0.00 0.00 79 1025.2
20181208204239 34 131 1.0 3.0 0.00 0.00 0.00 78 1025.0
20181208203531 34 0 0.0 5.0 0.00 0.00 0.00 78 1024.9
20181208203032 34 131 2.0 5.0 0.00 0.00 0.00 78 1024.8
20181208202531 35 0 0.0 7.0 0.00 0.00 0.00 77 1024.6
20181208202031 35 127 2.0 7.0 0.00 0.00 0.00 77 1024.5
20181208201533 35 105 2.0 5.0 0.00 0.00 0.00 78 1024.5
20181208201031 35 150 1.0 5.0 0.00 0.00 0.00 78 1024.6
20181208200532 35 150 1.0 4.0 0.00 0.00 0.00 77 1024.6
20181208200031 35 0 0.0 5.0 0.00 0.00 0.00 77 1024.6
20181208195531 36 149 2.0 5.0 0.00 0.00 0.00 76 1024.5
20181208194829 36 105 2.0 7.0 0.00 0.00 0.00 75 1024.5
20181208194328 36 0 0.0 4.0 0.00 0.00 0.00 75 1024.6
20181208193828 36 4 1.0 4.0 0.00 0.00 0.00 75 1024.8
20181208193332 37 355 1.0 3.0 0.00 0.00 0.00 74 1024.9
20181208192607 37 0 0.0 3.0 0.00 0.00 0.00 72 1024.9